createdAt,value
2022-10-03T00:01:12.196Z,14.80
2022-10-03T00:03:55.274Z,14.80
2022-10-03T00:07:01.706Z,14.80
2022-10-03T00:09:32.482Z,14.80
2022-10-03T00:12:08.879Z,14.80
2022-10-03T00:15:08.764Z,14.80
2022-10-03T00:18:02.954Z,14.70
2022-10-03T00:20:53.650Z,14.70
2022-10-03T00:23:54.445Z,14.70
2022-10-03T00:26:52.654Z,14.70
2022-10-03T00:29:39.257Z,14.70
2022-10-03T00:32:31.950Z,14.70
2022-10-03T00:35:02.180Z,14.70
2022-10-03T00:37:35.848Z,14.70
2022-10-03T00:40:35.187Z,14.70
2022-10-03T00:43:29.933Z,14.70
2022-10-03T00:46:27.492Z,14.70
2022-10-03T00:49:25.050Z,14.60
2022-10-03T00:52:19.600Z,14.70
2022-10-03T00:54:56.242Z,14.60
2022-10-03T00:57:41.918Z,14.70
2022-10-03T01:00:28.821Z,14.70
2022-10-03T01:03:20.833Z,14.70
2022-10-03T01:06:09.918Z,14.70
2022-10-03T01:08:46.849Z,14.70
2022-10-03T01:11:36.553Z,14.70
2022-10-03T01:14:18.323Z,14.70
2022-10-03T01:16:58.963Z,14.80
2022-10-03T01:19:48.121Z,14.80
2022-10-03T01:22:54.394Z,14.80
2022-10-03T01:25:50.640Z,14.80
2022-10-03T01:28:56.365Z,14.80
2022-10-03T01:31:33.161Z,14.80
2022-10-03T01:34:00.552Z,14.80
2022-10-03T01:36:39.850Z,14.80
2022-10-03T01:39:27.331Z,14.80
2022-10-03T01:42:07.611Z,14.80
2022-10-03T01:44:43.957Z,14.80
2022-10-03T01:47:32.787Z,14.80
2022-10-03T01:50:25.816Z,14.70
2022-10-03T01:53:04.753Z,14.80
2022-10-03T01:55:47.125Z,14.70
2022-10-03T01:58:37.097Z,14.80
2022-10-03T02:01:27.158Z,14.80
2022-10-03T02:04:15.637Z,14.80
2022-10-03T02:06:58.395Z,14.80
2022-10-03T02:09:31.646Z,14.80
2022-10-03T02:12:11.882Z,14.80
2022-10-03T02:14:59.847Z,14.80
2022-10-03T02:17:45.642Z,14.80
2022-10-03T02:20:23.886Z,14.80
2022-10-03T02:22:54.398Z,14.80
2022-10-03T02:25:21.504Z,14.80
2022-10-03T02:28:13.578Z,14.80
2022-10-03T02:31:01.727Z,14.90
2022-10-03T02:34:33.987Z,14.90
2022-10-03T02:37:37.517Z,14.90
2022-10-03T02:40:13.845Z,14.90
2022-10-03T02:42:42.186Z,15.00
2022-10-03T02:45:43.754Z,14.90
2022-10-03T02:48:31.273Z,15.00
2022-10-03T02:51:21.175Z,15.00
2022-10-03T02:54:29.313Z,15.00
2022-10-03T02:57:16.935Z,15.00
2022-10-03T02:59:53.239Z,15.00
2022-10-03T03:02:51.435Z,15.10
2022-10-03T03:05:36.696Z,15.00
2022-10-03T03:08:10.098Z,15.00
2022-10-03T03:11:08.228Z,15.10
2022-10-03T03:13:50.500Z,15.10
2022-10-03T03:16:52.562Z,15.10
2022-10-03T03:19:51.542Z,15.10
2022-10-03T03:22:36.466Z,15.10
2022-10-03T03:25:24.838Z,15.10
2022-10-03T03:28:12.209Z,15.10
2022-10-03T03:30:54.209Z,15.10
2022-10-03T03:33:45.476Z,15.10
2022-10-03T03:36:34.300Z,15.10
2022-10-03T03:39:07.651Z,15.10
2022-10-03T03:42:12.770Z,15.10
2022-10-03T03:44:58.482Z,15.10
2022-10-03T03:47:43.504Z,15.10
2022-10-03T03:50:47.921Z,15.10
2022-10-03T03:53:42.641Z,15.10
2022-10-03T03:56:09.589Z,15.10
2022-10-03T03:59:12.877Z,15.10
2022-10-03T04:02:19.015Z,15.10
2022-10-03T04:05:12.800Z,15.10
2022-10-03T04:08:04.316Z,15.00
2022-10-03T04:11:00.685Z,15.00
2022-10-03T04:13:50.044Z,15.00
2022-10-03T04:16:54.220Z,15.00
2022-10-03T04:19:33.510Z,15.00
2022-10-03T04:22:45.667Z,15.00
2022-10-03T04:25:32.320Z,15.00
2022-10-03T04:28:26.860Z,15.00
2022-10-03T04:31:19.784Z,15.00
2022-10-03T04:33:56.286Z,15.00
2022-10-03T04:37:01.598Z,15.00
2022-10-03T04:39:38.275Z,15.00
2022-10-03T04:42:14.592Z,15.00
2022-10-03T04:44:53.759Z,15.00
2022-10-03T04:47:36.163Z,15.00
2022-10-03T04:50:10.504Z,15.00
2022-10-03T04:52:58.731Z,15.00
2022-10-03T04:55:49.591Z,15.00
2022-10-03T04:58:32.172Z,15.00
2022-10-03T05:01:15.689Z,15.00
2022-10-03T05:03:57.810Z,15.00
2022-10-03T05:06:57.349Z,15.00
2022-10-03T05:09:49.595Z,15.00
2022-10-03T05:12:40.119Z,15.00
2022-10-03T05:15:19.074Z,15.00
2022-10-03T05:18:27.120Z,15.00
2022-10-03T05:21:05.463Z,15.00
2022-10-03T05:24:03.009Z,15.00
2022-10-03T05:26:45.377Z,15.00
2022-10-03T05:29:15.665Z,15.00
2022-10-03T05:31:53.792Z,15.00
2022-10-03T05:34:39.453Z,15.10
2022-10-03T05:37:12.597Z,15.10
2022-10-03T05:40:00.177Z,15.10
2022-10-03T05:42:27.841Z,15.10
2022-10-03T05:45:01.950Z,15.10
2022-10-03T05:47:46.227Z,15.10
2022-10-03T05:50:49.505Z,15.10
2022-10-03T05:53:38.889Z,15.10
2022-10-03T05:56:17.193Z,15.10
2022-10-03T05:58:57.316Z,15.10
2022-10-03T06:01:59.373Z,15.10
2022-10-03T06:04:50.487Z,15.10
2022-10-03T06:07:23.743Z,15.10
2022-10-03T06:10:19.566Z,15.10
2022-10-03T06:13:06.928Z,15.10
2022-10-03T06:15:55.378Z,15.10
2022-10-03T06:18:44.020Z,15.10
2022-10-03T06:21:38.769Z,15.10
2022-10-03T06:24:39.239Z,15.20
2022-10-03T06:27:43.748Z,15.20
2022-10-03T06:30:23.231Z,15.20
2022-10-03T06:33:23.986Z,15.20
2022-10-03T06:36:12.043Z,15.20
2022-10-03T06:39:22.824Z,15.20
2022-10-03T06:42:17.524Z,15.20
2022-10-03T06:45:14.938Z,15.20
2022-10-03T06:47:50.086Z,15.20
2022-10-03T06:50:42.269Z,15.20
2022-10-03T06:53:13.183Z,15.30
2022-10-03T06:55:52.330Z,15.20
2022-10-03T06:58:38.523Z,15.30
2022-10-03T07:01:11.668Z,15.30
2022-10-03T07:04:08.205Z,15.30
2022-10-03T07:07:08.884Z,15.30
2022-10-03T07:09:45.523Z,15.30
2022-10-03T07:12:43.882Z,15.30
2022-10-03T07:16:21.103Z,15.30
2022-10-03T07:19:10.872Z,15.30
2022-10-03T07:22:15.428Z,15.40
2022-10-03T07:25:00.528Z,15.40
2022-10-03T07:27:36.700Z,15.40
2022-10-03T07:30:25.208Z,15.50
2022-10-03T07:33:39.100Z,15.50
2022-10-03T07:36:50.133Z,15.60
2022-10-03T07:39:54.922Z,15.60
2022-10-03T07:42:49.812Z,15.70
2022-10-03T07:45:34.710Z,15.70
2022-10-03T07:48:42.310Z,15.80
2022-10-03T07:51:13.408Z,15.90
2022-10-03T07:54:05.174Z,15.90
2022-10-03T07:56:44.280Z,15.90
2022-10-03T07:59:40.438Z,15.90
2022-10-03T08:02:33.197Z,16.00
2022-10-03T08:05:14.563Z,16.00
2022-10-03T08:08:16.991Z,16.00
2022-10-03T08:10:49.652Z,15.90
2022-10-03T08:13:25.036Z,16.00
2022-10-03T08:16:10.950Z,16.00
2022-10-03T08:18:56.882Z,15.90
2022-10-03T08:21:55.576Z,16.00
2022-10-03T08:24:50.507Z,16.00
2022-10-03T08:27:54.662Z,16.00
2022-10-03T08:30:29.589Z,16.00
2022-10-03T08:32:58.219Z,16.00
2022-10-03T08:35:39.019Z,16.10
2022-10-03T08:38:28.276Z,16.10
2022-10-03T08:41:17.629Z,16.10
2022-10-03T08:44:30.786Z,16.10
2022-10-03T08:47:09.924Z,16.10
2022-10-03T08:49:55.484Z,16.20
2022-10-03T08:52:28.457Z,16.20
2022-10-03T08:55:14.274Z,16.20
2022-10-03T08:57:56.457Z,16.20
2022-10-03T09:01:01.844Z,16.30
2022-10-03T09:03:50.870Z,16.30
2022-10-03T09:07:18.720Z,16.30
2022-10-03T09:10:24.880Z,16.40
2022-10-03T09:13:09.547Z,16.60
2022-10-03T09:16:11.899Z,16.90
2022-10-03T09:19:07.038Z,17.30
2022-10-03T09:22:12.324Z,17.70
2022-10-03T09:24:59.979Z,18.10
2022-10-03T09:32:06.071Z,18.70
2022-10-03T09:34:33.297Z,19.10
2022-10-03T09:37:37.126Z,19.20
2022-10-03T09:40:31.386Z,19.30
2022-10-03T09:43:31.179Z,19.30
2022-10-03T09:46:25.713Z,19.20
2022-10-03T09:49:33.401Z,19.40
2022-10-03T09:52:23.037Z,19.60
2022-10-03T09:55:04.460Z,20.00
2022-10-03T09:57:59.225Z,20.20
2022-10-03T10:00:49.481Z,20.50
2022-10-03T10:03:22.798Z,20.70
2022-10-03T10:06:24.822Z,21.00
2022-10-03T10:09:18.446Z,21.10
2022-10-03T10:12:16.653Z,21.00
2022-10-03T10:15:08.341Z,20.80
2022-10-03T10:18:21.417Z,20.50
2022-10-03T10:21:17.664Z,20.30
2022-10-03T10:24:14.519Z,20.10
2022-10-03T10:26:58.840Z,19.90
2022-10-03T10:29:44.542Z,19.80
2022-10-03T10:32:32.763Z,19.60
2022-10-03T10:35:52.697Z,19.50
2022-10-03T10:38:39.157Z,19.30
2022-10-03T10:41:40.440Z,19.10
2022-10-03T10:44:41.533Z,19.00
2022-10-03T10:47:13.882Z,18.90
2022-10-03T10:49:59.431Z,18.90
2022-10-03T10:52:29.266Z,19.00
2022-10-03T10:55:35.771Z,19.20
2022-10-03T10:58:40.711Z,19.50
2022-10-03T11:01:37.013Z,19.80
2022-10-03T11:04:32.054Z,20.10
2022-10-03T11:07:22.564Z,20.30
2022-10-03T11:10:27.273Z,20.30
2022-10-03T11:13:32.192Z,20.30
2022-10-03T11:16:40.298Z,20.20
2022-10-03T11:19:27.438Z,20.20
2022-10-03T11:22:40.063Z,20.10
2022-10-03T11:25:41.419Z,20.00
2022-10-03T11:28:36.458Z,19.90
2022-10-03T11:31:30.786Z,19.90
2022-10-03T11:34:31.185Z,19.80
2022-10-03T11:37:17.947Z,19.70
2022-10-03T11:40:05.064Z,19.60
2022-10-03T11:42:38.370Z,19.60
2022-10-03T11:45:16.253Z,19.50
2022-10-03T11:48:32.962Z,19.40
2022-10-03T11:51:08.133Z,19.40
2022-10-03T11:53:38.043Z,19.40
2022-10-03T11:56:15.060Z,19.30
2022-10-03T11:58:51.250Z,19.30
2022-10-03T12:01:51.429Z,19.30
2022-10-03T12:04:30.820Z,19.30
2022-10-03T12:07:43.076Z,19.40
2022-10-03T12:10:14.584Z,19.40
2022-10-03T12:12:55.082Z,19.40
2022-10-03T12:15:25.276Z,19.30
2022-10-03T12:18:34.344Z,19.30
2022-10-03T12:21:10.735Z,19.30
2022-10-03T12:23:59.451Z,19.30
2022-10-03T12:26:54.185Z,19.30
2022-10-03T12:29:26.109Z,19.30
2022-10-03T12:32:02.165Z,19.20
2022-10-03T12:35:08.076Z,19.20
2022-10-03T12:38:00.854Z,19.20
2022-10-03T12:40:36.332Z,19.20
2022-10-03T12:43:17.270Z,19.20
2022-10-03T12:45:50.556Z,19.20
2022-10-03T12:48:48.626Z,19.20
2022-10-03T12:51:36.170Z,19.20
2022-10-03T12:54:26.519Z,19.30
2022-10-03T12:57:12.369Z,19.30
2022-10-03T12:59:45.147Z,19.30
2022-10-03T13:02:31.186Z,19.30
2022-10-03T13:05:29.703Z,19.40
2022-10-03T13:08:19.928Z,19.40
2022-10-03T13:10:56.864Z,19.40
2022-10-03T13:13:33.835Z,19.40
2022-10-03T13:16:28.255Z,19.40
2022-10-03T13:19:13.482Z,19.40
2022-10-03T13:21:46.183Z,19.40
2022-10-03T13:24:25.578Z,19.40
2022-10-03T13:26:55.552Z,19.40
2022-10-03T13:29:26.570Z,19.40
2022-10-03T13:32:05.007Z,19.40
2022-10-03T13:34:39.119Z,19.40
2022-10-03T13:37:40.445Z,19.30
2022-10-03T13:40:12.579Z,19.30
2022-10-03T13:42:52.429Z,19.30
2022-10-03T13:45:26.413Z,19.20
2022-10-03T13:48:05.290Z,19.10
2022-10-03T13:50:45.248Z,19.10
2022-10-03T13:53:21.038Z,19.00
2022-10-03T13:56:05.381Z,19.00
2022-10-03T13:58:41.348Z,19.00
2022-10-03T14:01:25.585Z,18.90
2022-10-03T14:04:14.748Z,18.90
2022-10-03T14:07:27.328Z,18.90
2022-10-03T14:10:17.754Z,18.90
2022-10-03T14:13:12.760Z,18.90
2022-10-03T14:15:59.321Z,18.90
2022-10-03T14:18:45.331Z,18.90
2022-10-03T14:21:16.061Z,18.90
2022-10-03T14:24:11.948Z,18.90
2022-10-03T14:26:57.996Z,18.90
2022-10-03T14:29:34.211Z,18.80
2022-10-03T14:32:11.211Z,18.80
2022-10-03T14:35:02.224Z,18.80
2022-10-03T14:38:04.450Z,18.80
2022-10-03T14:40:49.584Z,18.70
2022-10-03T14:43:46.324Z,18.80
2022-10-03T14:46:16.036Z,18.70
2022-10-03T14:48:50.017Z,18.70
2022-10-03T14:51:33.547Z,18.70
2022-10-03T14:54:07.364Z,18.70
2022-10-03T14:56:46.087Z,18.60
2022-10-03T14:59:33.627Z,18.60
2022-10-03T15:02:22.153Z,18.60
2022-10-03T15:04:51.391Z,18.60
2022-10-03T15:07:35.994Z,18.50
2022-10-03T15:10:11.875Z,18.50
2022-10-03T15:12:41.321Z,18.50
2022-10-03T15:15:26.512Z,18.40
2022-10-03T15:17:57.357Z,18.40
2022-10-03T15:20:30.233Z,18.40
2022-10-03T15:23:01.272Z,18.30
2022-10-03T15:25:55.288Z,18.30
2022-10-03T15:28:37.082Z,18.30
2022-10-03T15:31:22.314Z,18.30
2022-10-03T15:33:52.624Z,18.20
2022-10-03T15:36:25.926Z,18.20
2022-10-03T15:38:57.375Z,18.10
2022-10-03T15:41:37.955Z,18.10
2022-10-03T15:44:32.975Z,18.10
2022-10-03T15:47:15.106Z,18.10
2022-10-03T15:49:51.491Z,18.10
2022-10-03T15:52:48.221Z,18.00
2022-10-03T15:55:35.278Z,18.00
2022-10-03T15:58:15.807Z,18.00
2022-10-03T16:00:46.575Z,18.00
2022-10-03T16:03:17.105Z,18.00
2022-10-03T16:06:03.155Z,17.90
2022-10-03T16:08:36.343Z,17.90
2022-10-03T16:11:21.387Z,17.90
2022-10-03T16:14:16.870Z,17.90
2022-10-03T16:17:14.773Z,17.80
2022-10-03T16:19:52.399Z,17.90
2022-10-03T16:22:26.568Z,17.80
2022-10-03T16:25:12.037Z,17.80
2022-10-03T16:27:53.207Z,17.80
2022-10-03T16:30:28.480Z,17.80
2022-10-03T16:33:16.868Z,17.80
2022-10-03T16:35:50.334Z,17.80
2022-10-03T16:38:41.148Z,17.70
2022-10-03T16:41:14.280Z,17.70
2022-10-03T16:43:41.844Z,17.70
2022-10-03T16:46:21.658Z,17.60
2022-10-03T16:49:07.526Z,17.60
2022-10-03T16:51:44.614Z,17.50
2022-10-03T16:54:15.054Z,17.50
2022-10-03T16:56:48.437Z,17.50
2022-10-03T16:59:21.094Z,17.40
2022-10-03T17:02:05.579Z,17.40
2022-10-03T17:04:45.477Z,17.40
2022-10-03T17:07:24.303Z,17.40
2022-10-03T17:09:53.481Z,17.40
2022-10-03T17:12:25.915Z,17.30
2022-10-03T17:14:58.078Z,17.30
2022-10-03T17:17:33.648Z,17.30
2022-10-03T17:20:14.116Z,17.30
2022-10-03T17:23:02.767Z,17.30
2022-10-03T17:25:44.980Z,17.30
2022-10-03T17:28:26.747Z,17.30
2022-10-03T17:30:59.550Z,17.20
2022-10-03T17:33:48.929Z,17.20
2022-10-03T17:37:02.691Z,17.20
2022-10-03T17:39:33.447Z,17.20
2022-10-03T17:42:31.543Z,17.20
2022-10-03T17:45:01.495Z,17.20
2022-10-03T17:47:49.030Z,17.20
2022-10-03T17:50:37.830Z,17.20
2022-10-03T17:53:06.218Z,17.20
2022-10-03T17:55:40.094Z,17.20
2022-10-03T17:58:14.818Z,17.10
2022-10-03T18:00:44.884Z,17.10
2022-10-03T18:03:39.124Z,17.10
2022-10-03T18:06:35.434Z,17.10
2022-10-03T18:09:14.684Z,17.10
2022-10-03T18:11:43.771Z,17.10
2022-10-03T18:14:31.115Z,17.10
2022-10-03T18:17:13.416Z,17.10
2022-10-03T18:19:50.464Z,17.10
2022-10-03T18:22:21.527Z,17.10
2022-10-03T18:24:52.101Z,17.00
2022-10-03T18:27:52.502Z,17.00
2022-10-03T18:30:24.491Z,17.00
2022-10-03T18:32:53.629Z,17.00
2022-10-03T18:35:23.462Z,17.00
2022-10-03T18:38:17.054Z,16.90
2022-10-03T18:40:58.304Z,16.90
2022-10-03T18:43:37.155Z,16.90
2022-10-03T18:46:22.298Z,16.90
2022-10-03T18:49:25.221Z,16.90
2022-10-03T18:51:46.940Z,16.90
2022-10-03T18:54:17.855Z,16.90
2022-10-03T18:56:48.544Z,16.90
2022-10-03T18:59:29.210Z,16.90
2022-10-03T19:02:01.881Z,16.80
2022-10-03T19:04:40.852Z,16.90
2022-10-03T19:07:31.193Z,16.90
2022-10-03T19:10:21.770Z,16.90
2022-10-03T19:13:02.268Z,16.90
2022-10-03T19:16:14.200Z,16.90
2022-10-03T19:19:07.094Z,16.90
2022-10-03T19:21:38.959Z,16.90
2022-10-03T19:24:39.913Z,16.90
2022-10-03T19:27:17.560Z,16.90
2022-10-03T19:29:53.335Z,16.90
2022-10-03T19:32:44.425Z,16.90
2022-10-03T19:35:15.663Z,16.90
2022-10-03T19:38:10.472Z,16.90
2022-10-03T19:41:00.283Z,16.90
2022-10-03T19:43:44.012Z,16.80
2022-10-03T19:46:48.982Z,16.80
2022-10-03T19:49:27.990Z,16.80
2022-10-03T19:52:42.030Z,16.80
2022-10-03T19:55:14.098Z,16.80
2022-10-03T19:57:45.318Z,16.80
2022-10-03T20:00:15.428Z,16.80
2022-10-03T20:02:44.462Z,16.80
2022-10-03T20:05:32.759Z,16.80
2022-10-03T20:08:10.561Z,16.80
2022-10-03T20:10:43.770Z,16.80
2022-10-03T20:13:12.263Z,16.90
2022-10-03T20:15:46.433Z,16.80
2022-10-03T20:18:35.222Z,16.80
2022-10-03T20:21:10.812Z,16.80
2022-10-03T20:23:41.774Z,16.80
2022-10-03T20:26:37.932Z,16.80
2022-10-03T20:29:32.011Z,16.80
2022-10-03T20:32:01.219Z,16.80
2022-10-03T20:34:30.472Z,16.80
2022-10-03T20:37:39.777Z,16.80
2022-10-03T20:40:16.260Z,16.80
2022-10-03T20:42:47.027Z,16.80
2022-10-03T20:45:27.131Z,16.90
2022-10-03T20:48:03.232Z,16.80
2022-10-03T20:50:32.260Z,16.80
2022-10-03T20:53:04.863Z,16.80
2022-10-03T20:55:44.690Z,16.80
2022-10-03T20:58:19.021Z,16.80
2022-10-03T21:00:50.114Z,16.80
2022-10-03T21:03:51.653Z,16.80
2022-10-03T21:06:25.024Z,16.80
2022-10-03T21:08:55.584Z,16.80
2022-10-03T21:11:29.507Z,16.80
2022-10-03T21:14:04.170Z,16.80
2022-10-03T21:16:35.314Z,16.70
2022-10-03T21:19:06.182Z,16.70
2022-10-03T21:21:43.040Z,16.70
2022-10-03T21:24:44.616Z,16.70
2022-10-03T21:27:20.381Z,16.70
2022-10-03T21:30:04.368Z,16.80
2022-10-03T21:33:00.894Z,16.70
2022-10-03T21:35:36.408Z,16.70
2022-10-03T21:38:18.659Z,16.70
2022-10-03T21:41:00.590Z,16.70
2022-10-03T21:43:33.973Z,16.70
2022-10-03T21:46:27.204Z,16.70
2022-10-03T21:49:06.447Z,16.70
2022-10-03T21:51:52.178Z,16.70
2022-10-03T21:55:14.565Z,16.70
2022-10-03T21:58:07.418Z,16.70
2022-10-03T22:00:50.456Z,16.70
2022-10-03T22:03:21.349Z,16.70
2022-10-03T22:06:03.468Z,16.70
2022-10-03T22:08:35.532Z,16.70
2022-10-03T22:11:23.505Z,16.70
2022-10-03T22:14:28.171Z,16.60
2022-10-03T22:17:26.302Z,16.70
2022-10-03T22:20:12.375Z,16.70
2022-10-03T22:23:06.038Z,16.60
2022-10-03T22:25:54.574Z,16.60
2022-10-03T22:28:21.569Z,16.60
2022-10-03T22:31:01.434Z,16.60
2022-10-03T22:33:39.634Z,16.60
2022-10-03T22:36:11.805Z,16.70
2022-10-03T22:38:40.731Z,16.60
2022-10-03T22:41:12.954Z,16.60
2022-10-03T22:43:42.272Z,16.60
2022-10-03T22:46:14.748Z,16.60
2022-10-03T22:48:47.918Z,16.60
2022-10-03T22:51:18.787Z,16.70
2022-10-03T22:54:01.810Z,16.70
2022-10-03T22:56:41.286Z,16.70
2022-10-03T22:59:25.792Z,16.70
2022-10-03T23:01:57.318Z,16.70
2022-10-03T23:04:55.390Z,16.70
2022-10-03T23:07:36.068Z,16.70
2022-10-03T23:10:28.562Z,16.70
2022-10-03T23:13:07.343Z,16.70
2022-10-03T23:15:37.439Z,16.70
2022-10-03T23:18:33.766Z,16.70
2022-10-03T23:21:11.537Z,16.70
2022-10-03T23:24:13.124Z,16.70
2022-10-03T23:27:17.938Z,16.70
2022-10-03T23:29:45.119Z,16.70
2022-10-03T23:32:12.662Z,16.70
2022-10-03T23:34:44.335Z,16.70
2022-10-03T23:37:14.405Z,16.70
2022-10-03T23:40:04.357Z,16.70
2022-10-03T23:42:31.343Z,16.70
2022-10-03T23:45:03.145Z,16.70
2022-10-03T23:47:36.372Z,16.70
2022-10-03T23:50:06.936Z,16.70
2022-10-03T23:52:51.865Z,16.70
2022-10-03T23:55:32.165Z,16.70
2022-10-03T23:58:00.155Z,16.70
